Time;durP1;ratioP1;P1;durP2;ratioP2;P2;SDS_P1;SDS_P2;PMS_P1;PMS_P2;Temp;Humidity;BMP_temperature;BMP_pressure;BME280_temperature;BME280_humidity;BME280_pressure;Samples;Min_cycle;Max_cycle;Signal;HPM_P1;HPM_P2
2021/08/25 00:00:29;;;;;;;9.32;1.70;;;;;;;13.11;100.00;101327.34;5043256;28;20082;-78
2021/08/25 00:03:33;;;;;;;4.63;1.42;;;;;;;13.11;100.00;101324.53;5056640;28;20066;-78
2021/08/25 00:06:36;;;;;;;5.18;2.03;;;;;;;13.17;100.00;101322.69;5055416;28;20043;-78
2021/08/25 00:09:41;;;;;;;2.33;1.30;;;;;;;13.18;100.00;101315.88;5057011;28;20051;-78
2021/08/25 00:12:44;;;;;;;2.85;1.30;;;;;;;13.15;100.00;101316.78;5057892;28;20051;-79
2021/08/25 00:15:47;;;;;;;3.70;0.93;;;;;;;13.10;100.00;101311.81;5057725;28;21158;-78
2021/08/25 00:18:50;;;;;;;12.65;1.77;;;;;;;13.07;100.00;101315.50;5058386;28;20039;-78
2021/08/25 00:21:54;;;;;;;2.67;1.00;;;;;;;13.00;100.00;101315.75;5057204;28;20043;-78
2021/08/25 00:24:57;;;;;;;1.27;0.95;;;;;;;12.93;100.00;101310.41;5058609;28;21053;-78
2021/08/25 00:28:01;;;;;;;1.67;1.00;;;;;;;12.94;100.00;101300.78;5058135;28;20693;-78
2021/08/25 00:31:04;;;;;;;3.65;1.17;;;;;;;12.91;100.00;101305.28;5057575;28;20134;-77
2021/08/25 00:34:08;;;;;;;3.28;1.40;;;;;;;12.79;100.00;101294.97;5057480;28;20109;-78
2021/08/25 00:37:12;;;;;;;3.20;1.63;;;;;;;12.73;100.00;101296.00;5025030;28;20132;-78
2021/08/25 00:40:15;;;;;;;7.13;1.35;;;;;;;12.66;100.00;101296.25;5037949;28;20145;-78
2021/08/25 00:43:18;;;;;;;3.50;2.08;;;;;;;12.60;100.00;101309.25;5024713;28;20039;-79
2021/08/25 00:46:21;;;;;;;4.30;1.40;;;;;;;12.61;100.00;101300.41;5037364;28;20067;-79
2021/08/25 00:49:24;;;;;;;3.03;1.27;;;;;;;12.62;100.00;101292.81;5025384;28;20312;-80
2021/08/25 00:52:27;;;;;;;4.18;1.75;;;;;;;12.62;100.00;101292.81;5037348;28;20047;-79
2021/08/25 00:55:42;;;;;;;2.85;1.17;;;;;;;12.66;100.00;101290.66;5024259;28;20239;-79
2021/08/25 00:58:46;;;;;;;6.20;1.60;;;;;;;12.73;100.00;101296.00;5036897;28;20134;-79
2021/08/25 01:02:12;;;;;;;5.05;1.50;;;;;;;12.66;100.00;101296.25;5036746;28;20780;-80
2021/08/25 01:05:16;;;;;;;3.85;1.10;;;;;;;12.70;100.00;101289.31;5037605;28;20106;-80
2021/08/25 01:08:19;;;;;;;2.63;0.60;;;;;;;12.74;100.00;101294.75;5036133;28;20097;-79
2021/08/25 01:11:22;;;;;;;3.38;1.23;;;;;;;12.75;100.00;101285.94;5037600;28;20116;-80
2021/08/25 01:14:27;;;;;;;0.98;0.90;;;;;;;12.76;100.00;101284.69;5036672;28;20098;-79
2021/08/25 01:17:31;;;;;;;2.25;1.25;;;;;;;12.84;100.00;101297.16;5036695;28;20863;-80
2021/08/25 01:20:36;;;;;;;2.38;1.70;;;;;;;12.93;100.00;101288.03;5037036;28;20106;-79
2021/08/25 01:23:43;;;;;;;1.40;0.85;;;;;;;13.00;100.00;101282.19;5036965;28;20048;-79
2021/08/25 01:26:50;;;;;;;5.45;1.67;;;;;;;13.07;100.00;101289.56;5036351;28;20050;-81
2021/08/25 01:29:58;;;;;;;1.63;0.80;;;;;;;13.11;100.00;101288.19;5034683;28;20347;-79
2021/08/25 01:33:02;;;;;;;7.68;1.35;;;;;;;13.16;100.00;101284.00;5035146;28;20048;-79
2021/08/25 01:36:18;;;;;;;2.45;1.42;;;;;;;13.18;100.00;101273.94;5048692;28;20254;-80
2021/08/25 01:39:21;;;;;;;3.30;1.05;;;;;;;13.21;100.00;101272.22;5051994;28;20051;-81
2021/08/25 01:42:25;;;;;;;6.72;1.55;;;;;;;13.20;100.00;101256.66;5051764;28;20702;-79
2021/08/25 01:45:28;;;;;;;1.55;0.47;;;;;;;13.22;100.00;101273.78;5038499;28;20148;-79
2021/08/25 01:48:32;;;;;;;2.60;1.73;;;;;;;13.19;100.00;101253.09;5052486;28;21036;-79
2021/08/25 01:51:40;;;;;;;5.63;1.02;;;;;;;13.16;100.00;101254.03;5052789;28;20055;-79
2021/08/25 01:54:48;;;;;;;2.05;0.95;;;;;;;13.17;100.00;101246.38;5040979;28;20709;-79
2021/08/25 01:57:51;;;;;;;2.03;1.10;;;;;;;13.17;100.00;101247.19;5052654;28;20735;-78
2021/08/25 02:00:54;;;;;;;2.88;1.75;;;;;;;13.24;100.00;101244.09;5052160;28;20043;-79
2021/08/25 02:03:58;;;;;;;5.28;1.55;;;;;;;13.28;100.00;101230.75;5052765;28;20047;-78
2021/08/25 02:07:01;;;;;;;3.50;1.50;;;;;;;13.37;100.00;101244.78;5051991;28;20043;-76
2021/08/25 02:10:05;;;;;;;7.65;1.83;;;;;;;13.39;100.00;101236.69;5039046;28;20071;-80
2021/08/25 02:13:08;;;;;;;6.35;2.55;;;;;;;13.42;100.00;101235.78;5053872;28;20152;-81
2021/08/25 02:16:12;;;;;;;1.55;0.82;;;;;;;13.45;100.00;101240.44;5055769;28;20051;-78
2021/08/25 02:19:15;;;;;;;1.42;0.80;;;;;;;13.43;100.00;101242.94;5051891;28;20043;-79
2021/08/25 02:22:18;;;;;;;5.03;1.70;;;;;;;13.38;100.00;101237.94;5051664;28;20121;-80
2021/08/25 02:25:21;;;;;;;6.68;1.58;;;;;;;13.40;100.00;101238.28;5038594;28;20727;-78
2021/08/25 02:28:24;;;;;;;4.68;1.38;;;;;;;13.39;100.00;101231.09;5051825;28;20564;-78
2021/08/25 02:31:27;;;;;;;5.95;1.33;;;;;;;13.37;100.00;101216.78;5050858;28;20593;-78
2021/08/25 02:34:30;;;;;;;3.53;1.42;;;;;;;13.43;100.00;101226.13;5051525;28;20087;-79
2021/08/25 02:37:33;;;;;;;10.65;1.60;;;;;;;13.46;100.00;101219.63;5050155;28;20119;-78
2021/08/25 02:40:37;;;;;;;5.57;1.40;;;;;;;13.48;100.00;101214.34;5039109;28;20054;-78
2021/08/25 02:43:41;;;;;;;4.85;1.50;;;;;;;13.55;100.00;101216.84;5051267;28;20830;-79
2021/08/25 02:46:43;;;;;;;3.03;1.45;;;;;;;13.59;100.00;101211.88;5050310;28;20074;-79
2021/08/25 02:49:46;;;;;;;3.85;0.90;;;;;;;13.62;100.00;101199.75;5038935;28;20089;-78
2021/08/25 02:52:50;;;;;;;6.18;1.88;;;;;;;13.72;100.00;101197.75;5053721;28;20051;-79
2021/08/25 02:55:53;;;;;;;3.45;0.65;;;;;;;13.73;100.00;101199.28;5053162;28;20108;-79
2021/08/25 02:58:56;;;;;;;8.38;1.98;;;;;;;13.73;100.00;101195.75;5053140;28;20062;-78
2021/08/25 03:01:59;;;;;;;1.65;0.77;;;;;;;13.76;100.00;101192.78;5052547;28;20046;-79
2021/08/25 03:05:02;;;;;;;2.67;1.63;;;;;;;13.76;100.00;101192.78;5052414;28;21057;-79
2021/08/25 03:08:06;;;;;;;18.10;1.73;;;;;;;13.91;100.00;101190.13;5051619;28;20050;-79
2021/08/25 03:11:10;;;;;;;5.95;1.38;;;;;;;13.84;100.00;101179.25;5051499;28;20750;-80
2021/08/25 03:14:13;;;;;;;3.22;1.02;;;;;;;13.84;100.00;101177.22;5038131;28;20629;-79
2021/08/25 03:17:16;;;;;;;3.35;1.38;;;;;;;13.89;100.00;101175.81;5051511;28;20607;-79
2021/08/25 03:20:19;;;;;;;5.20;1.73;;;;;;;13.92;100.00;101172.88;5037273;28;20051;-79
2021/08/25 03:23:22;;;;;;;3.53;1.33;;;;;;;13.90;100.00;101169.00;5051165;28;20157;-79
2021/08/25 03:26:25;;;;;;;6.03;1.10;;;;;;;13.91;100.00;101164.94;5051444;28;20644;-80
2021/08/25 03:29:28;;;;;;;8.45;1.33;;;;;;;13.93;100.00;101162.44;5051385;28;20063;-79
2021/08/25 03:32:31;;;;;;;3.53;1.10;;;;;;;13.92;100.00;101163.69;5051387;28;20644;-80
2021/08/25 03:35:34;;;;;;;3.40;1.17;;;;;;;13.93;100.00;101162.44;5040153;28;20595;-79
2021/08/25 03:38:37;;;;;;;2.88;1.08;;;;;;;13.95;100.00;101155.13;5052472;28;20100;-81
2021/08/25 03:41:40;;;;;;;1.88;1.58;;;;;;;14.01;100.00;101155.31;5052719;28;20050;-79
2021/08/25 03:44:43;;;;;;;4.18;1.25;;;;;;;14.00;100.00;101148.13;5052890;28;20353;-79
2021/08/25 03:47:46;;;;;;;4.45;0.77;;;;;;;14.02;100.00;101143.63;5052067;28;20112;-80
2021/08/25 03:50:49;;;;;;;9.27;1.33;;;;;;;14.06;100.00;101151.84;5052369;28;20059;-79
2021/08/25 03:53:52;;;;;;;5.85;1.33;;;;;;;14.07;100.00;101150.63;5052416;28;20063;-78
2021/08/25 03:56:56;;;;;;;6.05;1.65;;;;;;;14.12;100.00;101141.59;5051601;28;20110;-83
2021/08/25 03:59:59;;;;;;;4.80;1.50;;;;;;;14.08;100.00;101140.97;5050697;28;20047;-79
2021/08/25 04:03:02;;;;;;;4.10;2.05;;;;;;;14.07;100.00;101145.03;5051361;28;20047;-79
2021/08/25 04:06:05;;;;;;;5.43;1.80;;;;;;;14.05;100.00;101139.88;5049566;28;20083;-79
2021/08/25 04:09:08;;;;;;;5.03;2.13;;;;;;;14.09;100.00;101131.31;5051529;28;20797;-81
2021/08/25 04:12:11;;;;;;;2.40;1.10;;;;;;;14.06;100.00;101133.03;5050331;28;20063;-78
2021/08/25 04:15:14;;;;;;;4.20;1.52;;;;;;;14.04;100.00;101131.94;5051193;28;20070;-79
2021/08/25 04:18:18;;;;;;;4.75;1.75;;;;;;;14.06;100.00;101121.03;5050801;28;20071;-79
2021/08/25 04:21:21;;;;;;;5.13;1.70;;;;;;;14.07;100.00;101133.81;5037896;28;20073;-79
2021/08/25 04:24:24;;;;;;;3.67;1.95;;;;;;;14.06;100.00;101121.03;5049630;28;20217;-78
2021/08/25 04:27:28;;;;;;;4.45;1.55;;;;;;;14.13;100.00;101126.31;5037425;28;20094;-78
2021/08/25 04:30:31;;;;;;;5.55;1.42;;;;;;;14.11;100.00;101126.81;5051429;28;20206;-79
2021/08/25 04:33:35;;;;;;;7.30;2.13;;;;;;;14.10;100.00;101121.66;5053411;28;20067;-79
2021/08/25 04:36:38;;;;;;;2.10;1.25;;;;;;;14.16;100.00;101133.81;5053954;28;20051;-79
2021/08/25 04:39:41;;;;;;;10.15;1.55;;;;;;;14.18;100.00;101134.13;5053292;28;20065;-76
2021/08/25 04:42:44;;;;;;;6.10;1.60;;;;;;;14.16;100.00;101128.97;5041204;28;20156;-78
2021/08/25 04:45:47;;;;;;;11.55;1.85;;;;;;;14.15;100.00;101129.44;5052834;28;20039;-78
2021/08/25 04:48:50;;;;;;;6.93;1.70;;;;;;;14.17;100.00;101133.31;5052129;28;20670;-78
2021/08/25 04:51:53;;;;;;;7.00;1.42;;;;;;;14.15;100.00;101133.03;5053058;28;20109;-78
2021/08/25 04:54:56;;;;;;;12.50;1.85;;;;;;;14.21;100.00;101125.53;5052540;28;20258;-78
2021/08/25 04:57:59;;;;;;;2.63;1.05;;;;;;;14.21;100.00;101128.34;5052583;28;20680;-78
2021/08/25 05:01:05;;;;;;;1.52;0.85;;;;;;;14.22;100.00;101123.50;5053094;28;20043;-78
2021/08/25 05:04:09;;;;;;;1.48;0.63;;;;;;;14.19;100.00;101124.44;5052762;28;20877;-79
2021/08/25 05:07:13;;;;;;;1.75;0.57;;;;;;;14.08;100.00;101124.94;5052415;28;20062;-77
2021/08/25 05:10:17;;;;;;;1.02;0.40;;;;;;;14.07;100.00;101125.41;5051505;28;20738;-78
2021/08/25 05:13:21;;;;;;;1.38;0.50;;;;;;;14.03;100.00;101122.00;5039733;28;20043;-80
2021/08/25 05:16:23;;;;;;;1.40;0.77;;;;;;;14.01;100.00;101125.25;5052272;28;20043;-78
2021/08/25 05:19:26;;;;;;;2.08;0.93;;;;;;;14.03;100.00;101128.38;5052218;28;20059;-81
2021/08/25 05:22:30;;;;;;;5.03;1.20;;;;;;;14.06;100.00;101133.03;5053180;28;20757;-78
2021/08/25 05:25:33;;;;;;;1.55;0.75;;;;;;;14.04;100.00;101124.31;5054759;28;20759;-78
2021/08/25 05:28:36;;;;;;;1.10;0.57;;;;;;;14.06;100.00;101129.44;5041158;28;20047;-80
2021/08/25 05:31:39;;;;;;;3.42;0.75;;;;;;;14.09;100.00;101126.50;5053191;28;20046;-80
2021/08/25 05:34:42;;;;;;;1.40;0.50;;;;;;;14.08;100.00;101124.94;5052716;28;20216;-79
2021/08/25 05:37:46;;;;;;;2.92;0.35;;;;;;;14.10;100.00;101132.84;5053292;28;20039;-77
2021/08/25 05:40:50;;;;;;;2.50;0.55;;;;;;;14.10;100.00;101132.84;5053434;28;20055;-78
2021/08/25 05:43:52;;;;;;;4.38;0.65;;;;;;;14.12;100.00;101133.19;5039105;28;20074;-78
2021/08/25 05:46:56;;;;;;;5.65;0.93;;;;;;;14.12;100.00;101131.16;5038248;28;20070;-78
2021/08/25 05:49:59;;;;;;;3.78;0.80;;;;;;;14.14;100.00;101130.69;5050736;28;20047;-79
2021/08/25 05:53:03;;;;;;;6.05;0.60;;;;;;;14.14;100.00;101130.69;5049048;28;20365;-81
2021/08/25 05:56:06;;;;;;;2.05;0.77;;;;;;;14.15;100.00;101137.84;5036833;28;20290;-78
2021/08/25 05:59:09;;;;;;;1.02;0.40;;;;;;;14.11;100.00;101137.22;5049047;28;20098;-78
2021/08/25 06:02:12;;;;;;;1.15;0.50;;;;;;;14.12;100.00;101124.78;5036747;28;20467;-77
2021/08/25 06:05:15;;;;;;;2.85;0.30;;;;;;;14.07;100.00;101125.41;5036011;28;20398;-77
2021/08/25 06:08:18;;;;;;;5.15;1.10;;;;;;;14.11;100.00;101128.81;5045263;28;20086;-76
2021/08/25 06:11:20;;;;;;;4.50;0.55;;;;;;;14.14;100.00;101141.91;5047840;28;20043;-79
2021/08/25 06:14:24;;;;;;;1.80;0.63;;;;;;;14.13;100.00;101143.13;5051568;28;20442;-78
2021/08/25 06:17:27;;;;;;;2.63;0.43;;;;;;;14.15;100.00;101135.03;5050581;28;20595;-79
2021/08/25 06:20:29;;;;;;;0.43;0.25;;;;;;;14.17;100.00;101136.13;5037794;28;20724;-78
2021/08/25 06:23:33;;;;;;;2.50;0.55;;;;;;;14.20;100.00;101143.59;5018858;28;20545;-79
2021/08/25 06:26:36;;;;;;;1.77;0.60;;;;;;;14.21;100.00;101144.38;5032334;28;20333;-79
2021/08/25 06:29:39;;;;;;;0.57;0.55;;;;;;;14.21;100.00;101139.53;5032679;28;20098;-79
2021/08/25 06:32:42;;;;;;;3.95;0.55;;;;;;;14.22;100.00;101146.72;5032004;28;20090;-79
2021/08/25 06:35:45;;;;;;;0.60;0.20;;;;;;;14.26;100.00;101141.72;5030562;28;20051;-75
2021/08/25 06:38:49;;;;;;;1.60;0.68;;;;;;;14.29;100.00;101143.59;5031170;28;20327;-75
2021/08/25 06:41:52;;;;;;;2.88;0.82;;;;;;;14.32;100.00;101144.69;5031577;28;20265;-75
2021/08/25 06:44:55;;;;;;;0.90;0.40;;;;;;;14.33;100.00;101146.25;5032328;28;20340;-77
2021/08/25 06:47:58;;;;;;;0.28;0.15;;;;;;;14.36;100.00;101139.69;5032355;28;20262;-77
2021/08/25 06:51:01;;;;;;;1.33;0.68;;;;;;;14.35;100.00;101144.53;5032360;28;20055;-77
2021/08/25 06:54:04;;;;;;;1.05;0.55;;;;;;;14.41;100.00;101139.06;5030869;28;20044;-78
2021/08/25 06:57:07;;;;;;;1.77;0.68;;;;;;;14.46;100.00;101138.44;5017930;28;20171;-77
2021/08/25 07:00:11;;;;;;;5.13;0.80;;;;;;;14.46;100.00;101144.06;5029453;28;20634;-76
2021/08/25 07:03:14;;;;;;;2.90;0.95;;;;;;;14.47;100.00;101139.97;5029322;28;20102;-77
2021/08/25 07:06:19;;;;;;;2.42;0.50;;;;;;;14.51;100.00;101134.22;5029176;28;20735;-76
2021/08/25 07:09:22;;;;;;;2.05;0.40;;;;;;;14.56;100.00;101131.56;5033185;28;20181;-77
2021/08/25 07:12:25;;;;;;;0.88;0.30;;;;;;;14.59;100.00;101127.81;5029969;28;20684;-77
2021/08/25 07:15:29;;;;;;;0.32;0.32;;;;;;;14.61;100.00;101132.94;5029493;28;20113;-77
2021/08/25 07:18:31;;;;;;;3.83;0.70;;;;;;;14.62;100.00;101132.47;5018272;28;20598;-77
2021/08/25 07:21:35;;;;;;;1.95;0.82;;;;;;;14.73;100.00;101129.94;5031428;28;20126;-78
2021/08/25 07:24:39;;;;;;;0.30;0.30;;;;;;;14.77;100.00;101130.53;5029945;28;20048;-77
2021/08/25 07:27:42;;;;;;;4.82;0.40;;;;;;;14.84;100.00;101123.81;5029885;28;20047;-78
2021/08/25 07:30:46;;;;;;;3.60;0.55;;;;;;;14.90;100.00;101131.09;5018248;28;20056;-77
2021/08/25 07:33:50;;;;;;;3.38;0.82;;;;;;;15.04;100.00;101127.63;5018845;28;21513;-77
2021/08/25 07:36:53;;;;;;;1.88;0.82;;;;;;;15.17;100.00;101119.75;5030898;28;20312;-77
2021/08/25 07:39:55;;;;;;;0.60;0.55;;;;;;;15.33;100.00;101124.19;5030084;28;20051;-76
2021/08/25 07:42:59;;;;;;;2.50;0.50;;;;;;;15.49;100.00;101123.00;5030629;28;20097;-77
2021/08/25 07:46:02;;;;;;;3.33;1.05;;;;;;;15.59;100.00;101128.06;5029111;28;20183;-78
2021/08/25 07:49:05;;;;;;;3.63;0.50;;;;;;;15.73;100.00;101120.94;5030015;28;20759;-77
2021/08/25 07:52:09;;;;;;;1.75;0.45;;;;;;;15.84;100.00;101121.94;5029155;28;20908;-77
2021/08/25 07:55:12;;;;;;;5.55;0.82;;;;;;;15.96;100.00;101122.91;5032404;28;20273;-77
2021/08/25 07:58:15;;;;;;;2.72;1.13;;;;;;;16.01;100.00;101118.66;5036670;28;20105;-77
2021/08/25 08:01:18;;;;;;;2.10;0.70;;;;;;;16.03;100.00;101114.13;5009583;28;20076;-77
2021/08/25 08:04:20;;;;;;;2.47;0.95;;;;;;;15.99;100.00;101121.97;5009328;28;20052;-77
2021/08/25 08:07:23;;;;;;;1.83;0.73;;;;;;;15.94;100.00;101125.44;5012580;28;20857;-77
2021/08/25 08:10:26;;;;;;;1.98;0.13;;;;;;;15.92;100.00;101119.53;5012011;28;20052;-77
2021/08/25 08:13:29;;;;;;;1.50;0.60;;;;;;;15.84;100.00;101115.56;5011692;28;20119;-77
2021/08/25 08:16:35;;;;;;;0.65;0.15;;;;;;;15.85;100.00;101119.91;5011480;28;20067;-77
2021/08/25 08:19:38;;;;;;;1.27;0.10;;;;;;;15.92;100.00;101125.16;5012074;28;20137;-76
2021/08/25 08:22:42;;;;;;;1.27;0.20;;;;;;;16.11;100.00;101123.75;5012071;28;20047;-78
2021/08/25 08:25:45;;;;;;;0.70;0.35;;;;;;;16.22;100.00;101123.91;5013194;28;20055;-79
2021/08/25 08:28:48;;;;;;;0.63;0.10;;;;;;;16.30;100.00;101122.31;5013504;28;20051;-79
2021/08/25 08:31:51;;;;;;;0.77;0.28;;;;;;;16.34;100.00;101120.06;5012792;28;20048;-78
2021/08/25 08:34:54;;;;;;;0.13;0.10;;;;;;;16.41;100.00;101116.09;5013558;28;20848;-79
2021/08/25 08:38:01;;;;;;;0.40;0.22;;;;;;;16.38;100.00;101114.25;5013315;28;20122;-79
2021/08/25 08:41:04;;;;;;;0.43;0.17;;;;;;;16.39;100.00;101121.44;5011640;28;20143;-78
2021/08/25 08:44:10;;;;;;;0.15;0.10;;;;;;;16.39;100.00;101113.78;5011832;28;20075;-79
2021/08/25 08:47:13;;;;;;;0.10;0.00;;;;;;;16.43;100.00;101110.75;5010138;28;20040;-76
2021/08/25 08:50:17;;;;;;;0.65;0.10;;;;;;;16.38;100.00;101112.22;5010458;28;20060;-76
2021/08/25 08:53:20;;;;;;;0.45;0.20;;;;;;;16.32;100.00;101116.97;5009988;28;20739;-77
2021/08/25 08:56:23;;;;;;;2.55;0.22;;;;;;;16.22;100.00;101115.50;5011478;28;20048;-77
2021/08/25 08:59:26;;;;;;;1.10;0.17;;;;;;;16.19;100.00;101116.47;5025167;28;20133;-77
2021/08/25 09:02:38;;;;;;;0.22;0.10;;;;;;;16.15;100.00;101121.50;5053526;28;20047;-77
2021/08/25 09:05:41;;;;;;;0.20;0.10;;;;;;;16.14;100.00;101127.59;5052969;28;20104;-77
2021/08/25 09:08:44;;;;;;;0.95;0.22;;;;;;;16.17;100.00;101127.44;5052562;28;21221;-77
2021/08/25 09:11:50;;;;;;;0.10;0.10;;;;;;;16.17;100.00;101130.25;5053248;28;20532;-76
2021/08/25 09:14:53;;;;;;;0.10;0.08;;;;;;;16.21;100.00;101125.19;5051920;28;20664;-78
2021/08/25 09:17:57;;;;;;;1.13;0.20;;;;;;;16.26;100.00;101124.53;5048865;28;20302;-78
2021/08/25 09:21:00;;;;;;;1.27;0.20;;;;;;;16.29;100.00;101117.94;5047037;28;20059;-77
2021/08/25 09:24:07;;;;;;;2.67;0.60;;;;;;;16.28;100.00;101124.03;5050234;28;20051;-79
2021/08/25 09:27:16;;;;;;;1.55;0.30;;;;;;;16.17;100.00;101124.63;5038993;28;20101;-80
2021/08/25 09:30:19;;;;;;;1.05;0.65;;;;;;;16.13;100.00;101126.84;5038413;28;20104;-80
2021/08/25 09:33:26;;;;;;;2.28;0.47;;;;;;;16.15;100.00;101126.34;5039378;28;20476;-79
2021/08/25 09:36:29;;;;;;;2.88;0.70;;;;;;;16.06;100.00;101138.47;5052288;28;20112;-79
2021/08/25 09:39:32;;;;;;;1.20;0.30;;;;;;;16.06;100.00;101132.84;5052791;28;20414;-79
2021/08/25 09:42:44;;;;;;;2.30;0.40;;;;;;;16.09;100.00;101131.09;5052937;28;20047;-79
2021/08/25 09:46:02;;;;;;;1.40;0.20;;;;;;;16.13;100.00;101132.47;5067811;28;20055;-79
2021/08/25 09:49:12;;;;;;;1.52;0.57;;;;;;;16.17;100.00;101127.44;5058390;28;20740;-81
2021/08/25 09:52:42;;;;;;;2.00;0.87;;;;;;;16.17;100.00;101116.19;5058113;28;20339;-79
2021/08/25 09:55:46;;;;;;;2.78;0.80;;;;;;;16.20;100.00;101109.56;5051827;28;20984;-78
2021/08/25 09:58:49;;;;;;;1.13;0.77;;;;;;;16.32;100.00;101102.91;5051321;28;21049;-78
2021/08/25 10:01:53;;;;;;;2.10;0.65;;;;;;;16.45;100.00;101097.75;5050605;28;20129;-79
2021/08/25 10:04:56;;;;;;;1.73;0.50;;;;;;;16.51;100.00;101095.06;5050444;28;20043;-78
2021/08/25 10:08:01;;;;;;;2.90;0.65;;;;;;;16.53;100.00;101087.69;5037962;28;20055;-78
2021/08/25 10:11:07;;;;;;;3.92;1.17;;;;;;;16.56;100.00;101097.19;5050488;28;20062;-78
2021/08/25 10:14:13;;;;;;;1.23;0.40;;;;;;;16.54;100.00;101094.09;5045606;28;20125;-80
2021/08/25 10:17:38;;;;;;;1.63;0.75;;;;;;;16.49;100.00;101103.97;5047636;28;20578;-79
2021/08/25 10:20:42;;;;;;;3.00;0.60;;;;;;;16.50;100.00;101099.16;5047138;28;20055;-78
2021/08/25 10:23:57;;;;;;;1.65;0.55;;;;;;;16.57;100.00;101099.50;5048061;28;20144;-78
2021/08/25 10:27:06;;;;;;;3.95;1.17;;;;;;;16.70;100.00;101099.19;5047850;28;20283;-77
2021/08/25 10:30:11;;;;;;;6.30;1.05;;;;;;;16.82;100.00;101094.53;5047434;28;20116;-79
2021/08/25 10:33:15;;;;;;;2.40;0.65;;;;;;;16.94;100.00;101097.00;5047997;28;21334;-78
2021/08/25 10:36:23;;;;;;;1.50;0.40;;;;;;;16.95;100.00;101089.34;5048470;28;20062;-78
2021/08/25 10:39:29;;;;;;;4.93;0.43;;;;;;;17.15;100.00;101084.50;5035145;28;20764;-78
2021/08/25 10:42:49;;;;;;;2.55;0.75;;;;;;;17.29;100.00;101085.72;5047946;28;20323;-78
2021/08/25 10:45:56;;;;;;;3.03;0.77;;;;;;;17.41;100.00;101076.91;5035091;28;20063;-78
2021/08/25 10:49:04;;;;;;;1.38;0.43;;;;;;;17.50;100.00;101073.22;5035376;28;20458;-78
2021/08/25 10:52:15;;;;;;;0.60;0.10;;;;;;;17.40;100.00;101072.56;5047821;28;20047;-78
2021/08/25 10:55:19;;;;;;;1.05;0.30;;;;;;;17.43;100.00;101079.25;5048006;28;20071;-80
2021/08/25 10:58:51;;;;;;;1.35;0.38;;;;;;;17.58;100.00;101059.50;5048906;28;20105;-78
2021/08/25 11:01:59;;;;;;;1.25;0.47;;;;;;;17.77;100.00;101063.53;5048583;28;20051;-80
2021/08/25 11:05:02;;;;;;;0.77;0.25;;;;;;;17.95;100.00;101051.94;5048639;28;20101;-79
2021/08/25 11:08:20;;;;;;;0.60;0.28;;;;;;;18.17;100.00;101057.78;5049161;28;20100;-78
2021/08/25 11:11:23;;;;;;;1.65;0.30;;;;;;;18.36;100.00;101047.72;5048796;28;20051;-79
2021/08/25 11:14:30;;;;;;;0.90;0.10;;;;;;;18.50;100.00;101057.31;5048748;28;20116;-79
2021/08/25 11:17:38;;;;;;;0.40;0.10;;;;;;;18.56;100.00;101044.03;5048639;28;20937;-78
2021/08/25 11:20:41;;;;;;;2.30;0.40;;;;;;;18.68;100.00;101045.66;5048876;28;20101;-77
2021/08/25 11:23:55;;;;;;;0.60;0.22;;;;;;;18.80;100.00;101041.63;5049158;28;20066;-78
2021/08/25 11:26:58;;;;;;;1.70;0.20;;;;;;;18.95;100.00;101042.22;5048317;28;20634;-77
2021/08/25 11:30:10;;;;;;;0.20;0.10;;;;;;;19.12;100.00;101034.63;5044636;28;20121;-78
2021/08/25 11:33:15;;;;;;;0.40;0.13;;;;;;;19.14;100.00;101032.06;5045130;28;20600;-78
2021/08/25 11:36:19;;;;;;;1.58;0.57;;;;;;;19.18;100.00;101029.00;5044870;28;20192;-77
2021/08/25 11:39:23;;;;;;;2.20;1.15;;;;;;;19.25;100.00;101026.44;5045012;28;20043;-77
2021/08/25 11:42:30;;;;;;;1.10;0.30;;;;;;;19.40;100.00;101023.47;5050041;28;20644;-78
2021/08/25 11:45:34;;;;;;;0.50;0.20;;;;;;;19.43;100.00;101014.75;5051419;28;20236;-78
2021/08/25 11:48:37;;;;;;;1.25;0.32;;;;;;;19.50;100.00;101014.25;5052593;28;20751;-78
2021/08/25 11:51:40;;;;;;;0.50;0.10;;;;;;;19.44;100.00;101012.69;5052232;28;20252;-77
2021/08/25 11:54:44;;;;;;;0.98;0.35;;;;;;;19.36;100.00;101014.47;5050863;28;20642;-78
2021/08/25 11:57:55;;;;;;;0.90;0.35;;;;;;;19.17;100.00;101008.44;5053043;28;20067;-77
2021/08/25 12:01:00;;;;;;;2.22;0.47;;;;;;;19.10;100.00;101019.47;5051651;28;20252;-78
2021/08/25 12:04:03;;;;;;;1.23;0.60;;;;;;;19.14;100.00;101009.47;5053721;28;20102;-79
2021/08/25 12:07:10;;;;;;;1.85;0.20;;;;;;;19.27;100.00;101006.97;5053595;28;20387;-78
2021/08/25 12:10:23;;;;;;;1.17;0.35;;;;;;;19.48;100.00;100993.44;5052153;28;20038;-78
2021/08/25 12:13:37;;;;;;;0.63;0.47;;;;;;;19.65;100.00;100992.19;5053435;28;20112;-77
2021/08/25 12:16:40;;;;;;;0.73;0.22;;;;;;;19.74;100.00;100990.41;5053288;28;20209;-78
2021/08/25 12:19:58;;;;;;;0.20;0.10;;;;;;;19.84;100.00;100986.06;5053345;28;20089;-78
2021/08/25 12:23:04;;;;;;;3.17;0.30;;;;;;;19.84;100.00;100986.06;5052390;28;20592;-78
2021/08/25 12:26:16;;;;;;;0.10;0.10;;;;;;;19.84;100.00;100991.72;5047560;28;20613;-78
2021/08/25 12:29:29;;;;;;;0.90;0.13;;;;;;;19.73;100.00;100997.34;5051460;28;20051;-78
2021/08/25 12:32:42;;;;;;;0.43;0.28;;;;;;;19.68;100.00;100993.97;5051065;28;20276;-78
2021/08/25 12:35:45;;;;;;;1.50;0.20;;;;;;;19.85;100.00;100987.59;5049943;28;20543;-78
2021/08/25 12:38:49;;;;;;;0.65;0.32;;;;;;;19.86;100.00;100983.50;5036055;28;20063;-79
2021/08/25 12:41:53;;;;;;;0.22;0.22;;;;;;;20.06;100.00;100974.75;5037107;28;20284;-77
2021/08/25 12:44:57;;;;;;;1.17;0.10;;;;;;;20.55;100.00;100959.81;5048893;28;20176;-78
2021/08/25 12:48:00;;;;;;;0.25;0.20;;;;;;;20.80;100.00;100958.72;5050763;28;20175;-79
2021/08/25 12:51:03;;;;;;;0.25;0.00;;;;;;;20.89;100.00;100969.75;5055221;28;20051;-78
2021/08/25 12:54:06;;;;;;;0.85;0.10;;;;;;;20.91;100.00;100963.56;5054547;28;20646;-78
2021/08/25 12:57:09;;;;;;;0.20;0.20;;;;;;;20.77;100.00;100959.00;5051892;28;20265;-78
2021/08/25 13:00:13;;;;;;;1.17;0.20;;;;;;;20.59;100.00;100960.31;5039092;28;20125;-78
2021/08/25 13:03:16;;;;;;;0.82;0.10;;;;;;;20.56;100.00;100952.84;5051292;28;20047;-78
2021/08/25 13:06:19;;;;;;;0.50;0.20;;;;;;;20.49;100.00;100953.38;5051545;28;20249;-78
2021/08/25 13:09:22;;;;;;;0.28;0.15;;;;;;;20.50;100.00;100952.09;5050046;28;20058;-78
2021/08/25 13:12:25;;;;;;;0.35;0.15;;;;;;;20.51;100.00;100941.56;5049916;28;20067;-78
2021/08/25 13:15:28;;;;;;;0.40;0.20;;;;;;;20.61;100.00;100934.31;5048813;28;20654;-78
2021/08/25 13:18:31;;;;;;;0.65;0.20;;;;;;;20.52;100.00;100926.88;5049014;28;20335;-78
2021/08/25 13:21:33;;;;;;;1.13;0.35;;;;;;;20.51;100.00;100931.00;5048702;28;20177;-77
2021/08/25 13:24:36;;;;;;;0.15;0.10;;;;;;;20.62;100.00;100928.13;5049017;28;20055;-78
2021/08/25 13:27:39;;;;;;;0.95;0.30;;;;;;;20.79;100.00;100931.66;5048394;28;20364;-78
2021/08/25 13:30:42;;;;;;;0.32;0.13;;;;;;;20.90;100.00;100923.13;5046327;28;20313;-82
2021/08/25 13:33:45;;;;;;;1.05;0.28;;;;;;;20.91;100.00;100912.59;5047639;28;20050;-78
2021/08/25 13:36:48;;;;;;;0.80;0.17;;;;;;;21.02;100.00;100901.97;5043112;28;20158;-79
2021/08/25 13:39:51;;;;;;;0.75;0.30;;;;;;;21.11;100.00;100904.50;5047079;28;20388;-78
2021/08/25 13:42:54;;;;;;;1.30;0.30;;;;;;;20.96;100.00;100898.38;5047711;28;20676;-78
2021/08/25 13:45:57;;;;;;;0.40;0.10;;;;;;;20.98;100.00;100901.50;5046477;28;20852;-77
2021/08/25 13:49:01;;;;;;;0.50;0.30;;;;;;;21.04;100.00;100904.31;5047743;28;20253;-79
2021/08/25 13:52:05;;;;;;;1.27;0.60;;;;;;;21.53;100.00;100900.38;5044476;28;20042;-78
2021/08/25 13:55:08;;;;;;;1.02;0.22;;;;;;;21.75;100.00;100890.94;5050489;28;20254;-77
2021/08/25 13:58:12;;;;;;;2.30;0.22;;;;;;;21.70;100.00;100891.78;5050696;28;20313;-75
2021/08/25 14:01:16;;;;;;;2.38;0.45;;;;;;;21.70;100.00;100886.09;5043645;28;20238;-75
2021/08/25 14:04:19;;;;;;;1.52;0.68;;;;;;;21.53;100.00;100871.25;5050627;28;20070;-76
2021/08/25 14:07:22;;;;;;;1.67;0.32;;;;;;;21.42;100.00;100874.22;5052111;28;20047;-74